sensor_id;sensor_type;location;lat;lon;timestamp;temperature;humidity
15274;DHT22;7738;49.532;11.156;2023-03-01T00:03:17;-2.00;99.90
15274;DHT22;7738;49.532;11.156;2023-03-01T00:13:11;-2.00;99.90
15274;DHT22;7738;49.532;11.156;2023-03-01T00:15:41;-2.00;99.90
15274;DHT22;7738;49.532;11.156;2023-03-01T00:18:11;-1.90;99.90
15274;DHT22;7738;49.532;11.156;2023-03-01T00:25:42;-2.00;99.90
15274;DHT22;7738;49.532;11.156;2023-03-01T00:28:14;-2.10;99.90
15274;DHT22;7738;49.532;11.156;2023-03-01T00:30:45;-2.30;99.90
15274;DHT22;7738;49.532;11.156;2023-03-01T00:33:16;-2.00;99.90
15274;DHT22;7738;49.532;11.156;2023-03-01T00:35:46;-2.10;99.90
15274;DHT22;7738;49.532;11.156;2023-03-01T00:43:19;-2.10;99.90
15274;DHT22;7738;49.532;11.156;2023-03-01T00:53:19;-2.00;99.90
15274;DHT22;7738;49.532;11.156;2023-03-01T00:55:49;-2.10;99.90
15274;DHT22;7738;49.532;11.156;2023-03-01T00:58:22;-2.20;99.90
15274;DHT22;7738;49.532;11.156;2023-03-01T01:00:52;-2.20;99.90
15274;DHT22;7738;49.532;11.156;2023-03-01T01:03:23;-2.20;99.90
15274;DHT22;7738;49.532;11.156;2023-03-01T01:05:53;-2.20;99.90
15274;DHT22;7738;49.532;11.156;2023-03-01T01:08:23;-2.20;99.90
15274;DHT22;7738;49.532;11.156;2023-03-01T01:10:53;-2.10;99.90
15274;DHT22;7738;49.532;11.156;2023-03-01T01:13:26;-2.30;99.90
15274;DHT22;7738;49.532;11.156;2023-03-01T01:16:00;-1.60;99.90
15274;DHT22;7738;49.532;11.156;2023-03-01T01:18:30;-2.20;99.90
15274;DHT22;7738;49.532;11.156;2023-03-01T01:21:05;-2.30;99.90
15274;DHT22;7738;49.532;11.156;2023-03-01T01:23:36;-2.30;99.90
15274;DHT22;7738;49.532;11.156;2023-03-01T01:26:07;-2.20;99.90
15274;DHT22;7738;49.532;11.156;2023-03-01T01:28:40;-2.30;99.90
15274;DHT22;7738;49.532;11.156;2023-03-01T01:31:10;-2.10;99.90
15274;DHT22;7738;49.532;11.156;2023-03-01T01:33:41;-1.30;99.90
15274;DHT22;7738;49.532;11.156;2023-03-01T01:41:13;-2.40;99.90
15274;DHT22;7738;49.532;11.156;2023-03-01T01:43:48;-2.30;99.90
15274;DHT22;7738;49.532;11.156;2023-03-01T01:46:23;-2.40;99.90
15274;DHT22;7738;49.532;11.156;2023-03-01T01:48:58;-2.40;99.90
15274;DHT22;7738;49.532;11.156;2023-03-01T01:51:31;-2.50;99.90
15274;DHT22;7738;49.532;11.156;2023-03-01T01:54:10;-2.50;99.90
15274;DHT22;7738;49.532;11.156;2023-03-01T01:56:44;-2.60;99.90
15274;DHT22;7738;49.532;11.156;2023-03-01T01:59:19;-2.30;99.90
15274;DHT22;7738;49.532;11.156;2023-03-01T02:01:51;-2.60;99.90
15274;DHT22;7738;49.532;11.156;2023-03-01T02:04:23;-2.90;99.90
15274;DHT22;7738;49.532;11.156;2023-03-01T02:06:58;-1.70;99.90
15274;DHT22;7738;49.532;11.156;2023-03-01T02:09:30;-2.50;99.90
15274;DHT22;7738;49.532;11.156;2023-03-01T02:12:02;-2.40;99.90
15274;DHT22;7738;49.532;11.156;2023-03-01T02:14:36;-2.50;99.90
15274;DHT22;7738;49.532;11.156;2023-03-01T02:19:46;-2.50;99.90
15274;DHT22;7738;49.532;11.156;2023-03-01T02:22:23;-2.50;99.90
15274;DHT22;7738;49.532;11.156;2023-03-01T02:24:57;-2.60;99.90
15274;DHT22;7738;49.532;11.156;2023-03-01T02:27:39;-2.60;99.90
15274;DHT22;7738;49.532;11.156;2023-03-01T02:30:13;-2.60;99.90
15274;DHT22;7738;49.532;11.156;2023-03-01T02:32:43;-2.50;99.90
15274;DHT22;7738;49.532;11.156;2023-03-01T02:35:14;-2.60;99.90
15274;DHT22;7738;49.532;11.156;2023-03-01T02:37:45;-2.60;99.90
15274;DHT22;7738;49.532;11.156;2023-03-01T02:40:17;-2.60;99.90
15274;DHT22;7738;49.532;11.156;2023-03-01T02:42:51;-2.90;99.90
15274;DHT22;7738;49.532;11.156;2023-03-01T02:45:27;-2.60;99.90
15274;DHT22;7738;49.532;11.156;2023-03-01T02:47:57;-1.50;99.90
15274;DHT22;7738;49.532;11.156;2023-03-01T02:50:45;-2.60;99.90
15274;DHT22;7738;49.532;11.156;2023-03-01T02:53:21;-2.60;99.90
15274;DHT22;7738;49.532;11.156;2023-03-01T03:00:59;-2.70;99.90
15274;DHT22;7738;49.532;11.156;2023-03-01T03:03:29;-2.70;99.90
15274;DHT22;7738;49.532;11.156;2023-03-01T03:05:59;-1.70;99.90
15274;DHT22;7738;49.532;11.156;2023-03-01T03:08:29;-2.70;99.90
15274;DHT22;7738;49.532;11.156;2023-03-01T03:10:59;-2.70;99.90
15274;DHT22;7738;49.532;11.156;2023-03-01T03:13:29;-2.90;99.90
15274;DHT22;7738;49.532;11.156;2023-03-01T03:16:03;-2.70;99.90
15274;DHT22;7738;49.532;11.156;2023-03-01T03:18:33;-2.70;99.90
15274;DHT22;7738;49.532;11.156;2023-03-01T03:21:07;-2.80;99.90
15274;DHT22;7738;49.532;11.156;2023-03-01T03:23:38;-2.80;99.90
15274;DHT22;7738;49.532;11.156;2023-03-01T03:28:40;-2.80;99.90
15274;DHT22;7738;49.532;11.156;2023-03-01T03:31:13;-2.50;99.90
15274;DHT22;7738;49.532;11.156;2023-03-01T03:36:16;-3.00;99.90
15274;DHT22;7738;49.532;11.156;2023-03-01T03:38:46;-3.00;99.90
15274;DHT22;7738;49.532;11.156;2023-03-01T03:41:17;-2.90;99.90
15274;DHT22;7738;49.532;11.156;2023-03-01T03:46:20;-3.10;99.90
15274;DHT22;7738;49.532;11.156;2023-03-01T03:51:20;-3.10;99.90
15274;DHT22;7738;49.532;11.156;2023-03-01T03:53:50;-3.20;99.90
15274;DHT22;7738;49.532;11.156;2023-03-01T03:58:54;-3.20;99.90
15274;DHT22;7738;49.532;11.156;2023-03-01T04:01:27;-3.30;99.90
15274;DHT22;7738;49.532;11.156;2023-03-01T04:09:01;-3.20;99.90
15274;DHT22;7738;49.532;11.156;2023-03-01T04:11:32;-3.00;99.90
15274;DHT22;7738;49.532;11.156;2023-03-01T04:14:01;-3.20;99.90
15274;DHT22;7738;49.532;11.156;2023-03-01T04:16:34;-3.30;99.90
15274;DHT22;7738;49.532;11.156;2023-03-01T04:21:36;-3.30;99.90
15274;DHT22;7738;49.532;11.156;2023-03-01T04:24:07;-3.30;99.90
15274;DHT22;7738;49.532;11.156;2023-03-01T04:26:37;-3.40;99.90
15274;DHT22;7738;49.532;11.156;2023-03-01T04:29:07;-3.50;99.90
15274;DHT22;7738;49.532;11.156;2023-03-01T04:31:40;-5.10;99.90
15274;DHT22;7738;49.532;11.156;2023-03-01T04:34:10;-3.60;99.90
15274;DHT22;7738;49.532;11.156;2023-03-01T04:36:41;-3.60;99.90
15274;DHT22;7738;49.532;11.156;2023-03-01T04:39:11;-3.60;99.90
15274;DHT22;7738;49.532;11.156;2023-03-01T04:41:41;-3.60;99.90
15274;DHT22;7738;49.532;11.156;2023-03-01T04:44:12;-3.50;99.90
15274;DHT22;7738;49.532;11.156;2023-03-01T04:46:45;-3.60;99.90
15274;DHT22;7738;49.532;11.156;2023-03-01T04:49:17;-3.60;99.90
15274;DHT22;7738;49.532;11.156;2023-03-01T04:51:47;-3.50;99.90
15274;DHT22;7738;49.532;11.156;2023-03-01T04:54:17;-3.60;99.90
15274;DHT22;7738;49.532;11.156;2023-03-01T04:56:47;-3.60;99.90
15274;DHT22;7738;49.532;11.156;2023-03-01T04:59:17;-3.60;99.90
15274;DHT22;7738;49.532;11.156;2023-03-01T05:01:53;-3.60;99.90
15274;DHT22;7738;49.532;11.156;2023-03-01T05:04:23;-3.70;99.90
15274;DHT22;7738;49.532;11.156;2023-03-01T05:06:53;-3.70;99.90
15274;DHT22;7738;49.532;11.156;2023-03-01T05:09:25;-3.70;99.90
15274;DHT22;7738;49.532;11.156;2023-03-01T05:11:55;-3.60;99.90
15274;DHT22;7738;49.532;11.156;2023-03-01T05:14:25;-3.60;99.90
15274;DHT22;7738;49.532;11.156;2023-03-01T05:16:58;-3.60;99.90
15274;DHT22;7738;49.532;11.156;2023-03-01T05:19:31;-3.60;99.90
15274;DHT22;7738;49.532;11.156;2023-03-01T05:22:01;-3.60;99.90
15274;DHT22;7738;49.532;11.156;2023-03-01T05:24:35;-3.60;99.90
15274;DHT22;7738;49.532;11.156;2023-03-01T05:27:05;-3.60;99.90
15274;DHT22;7738;49.532;11.156;2023-03-01T05:29:35;-3.50;99.90
15274;DHT22;7738;49.532;11.156;2023-03-01T05:32:09;-3.50;99.90
15274;DHT22;7738;49.532;11.156;2023-03-01T05:34:43;-3.50;99.90
15274;DHT22;7738;49.532;11.156;2023-03-01T05:37:13;-3.60;99.90
15274;DHT22;7738;49.532;11.156;2023-03-01T05:39:43;-3.60;99.90
15274;DHT22;7738;49.532;11.156;2023-03-01T05:42:16;-3.50;99.90
15274;DHT22;7738;49.532;11.156;2023-03-01T05:44:49;-3.50;99.90
15274;DHT22;7738;49.532;11.156;2023-03-01T05:47:22;-3.50;99.90
15274;DHT22;7738;49.532;11.156;2023-03-01T05:49:51;-3.50;99.90
15274;DHT22;7738;49.532;11.156;2023-03-01T05:54:52;-3.50;99.90
15274;DHT22;7738;49.532;11.156;2023-03-01T05:57:22;-3.50;99.90
15274;DHT22;7738;49.532;11.156;2023-03-01T05:59:52;-3.40;99.90
15274;DHT22;7738;49.532;11.156;2023-03-01T06:02:25;-3.40;99.90
15274;DHT22;7738;49.532;11.156;2023-03-01T06:04:56;-3.40;99.90
15274;DHT22;7738;49.532;11.156;2023-03-01T06:07:26;-3.40;99.90
15274;DHT22;7738;49.532;11.156;2023-03-01T06:09:56;-3.50;99.90
15274;DHT22;7738;49.532;11.156;2023-03-01T06:12:27;-3.50;99.90
15274;DHT22;7738;49.532;11.156;2023-03-01T06:14:59;-3.40;99.90
15274;DHT22;7738;49.532;11.156;2023-03-01T06:17:35;-3.40;99.90
15274;DHT22;7738;49.532;11.156;2023-03-01T06:20:08;-3.50;99.90
15274;DHT22;7738;49.532;11.156;2023-03-01T06:22:39;-3.90;99.90
15274;DHT22;7738;49.532;11.156;2023-03-01T06:25:15;-3.50;99.90
15274;DHT22;7738;49.532;11.156;2023-03-01T06:27:46;-3.50;99.90
15274;DHT22;7738;49.532;11.156;2023-03-01T06:30:17;-3.50;99.90
15274;DHT22;7738;49.532;11.156;2023-03-01T06:32:50;-3.50;99.90
15274;DHT22;7738;49.532;11.156;2023-03-01T06:35:27;-3.50;99.90
15274;DHT22;7738;49.532;11.156;2023-03-01T06:38:00;-3.40;99.90
15274;DHT22;7738;49.532;11.156;2023-03-01T06:40:31;-3.30;99.90
15274;DHT22;7738;49.532;11.156;2023-03-01T06:43:02;-3.30;99.90
15274;DHT22;7738;49.532;11.156;2023-03-01T06:45:32;-3.30;99.90
15274;DHT22;7738;49.532;11.156;2023-03-01T06:48:06;-3.10;99.90
15274;DHT22;7738;49.532;11.156;2023-03-01T06:50:37;-3.10;99.90
15274;DHT22;7738;49.532;11.156;2023-03-01T06:53:07;-3.00;99.90
15274;DHT22;7738;49.532;11.156;2023-03-01T06:55:37;-3.00;99.90
15274;DHT22;7738;49.532;11.156;2023-03-01T06:58:08;-2.90;99.90
15274;DHT22;7738;49.532;11.156;2023-03-01T07:00:38;-2.90;99.90
15274;DHT22;7738;49.532;11.156;2023-03-01T07:03:12;-2.70;99.90
15274;DHT22;7738;49.532;11.156;2023-03-01T07:05:42;-2.60;99.90
15274;DHT22;7738;49.532;11.156;2023-03-01T07:08:12;-2.50;99.90
15274;DHT22;7738;49.532;11.156;2023-03-01T07:10:42;-2.50;99.90
15274;DHT22;7738;49.532;11.156;2023-03-01T07:13:12;-2.40;99.90
15274;DHT22;7738;49.532;11.156;2023-03-01T07:15:42;-2.40;99.90
15274;DHT22;7738;49.532;11.156;2023-03-01T07:18:15;-2.30;99.90
15274;DHT22;7738;49.532;11.156;2023-03-01T07:20:44;-2.30;99.90
15274;DHT22;7738;49.532;11.156;2023-03-01T07:23:14;-2.20;99.90
15274;DHT22;7738;49.532;11.156;2023-03-01T07:25:51;-2.10;99.90
15274;DHT22;7738;49.532;11.156;2023-03-01T07:28:22;-2.00;99.90
15274;DHT22;7738;49.532;11.156;2023-03-01T07:30:53;-2.00;99.90
15274;DHT22;7738;49.532;11.156;2023-03-01T07:33:26;-2.00;99.90
15274;DHT22;7738;49.532;11.156;2023-03-01T07:35:56;-2.00;99.90
15274;DHT22;7738;49.532;11.156;2023-03-01T07:38:28;-1.90;99.90
15274;DHT22;7738;49.532;11.156;2023-03-01T07:40:59;-1.70;99.90
15274;DHT22;7738;49.532;11.156;2023-03-01T07:43:30;-1.60;99.90
15274;DHT22;7738;49.532;11.156;2023-03-01T07:46:00;-1.60;99.90
15274;DHT22;7738;49.532;11.156;2023-03-01T07:48:33;-1.50;99.90
15274;DHT22;7738;49.532;11.156;2023-03-01T07:51:05;-1.40;99.90
15274;DHT22;7738;49.532;11.156;2023-03-01T07:53:35;-1.40;99.90
15274;DHT22;7738;49.532;11.156;2023-03-01T07:56:08;-1.30;99.90
15274;DHT22;7738;49.532;11.156;2023-03-01T07:58:39;-1.20;99.90
15274;DHT22;7738;49.532;11.156;2023-03-01T08:01:12;-1.20;99.90
15274;DHT22;7738;49.532;11.156;2023-03-01T08:03:45;-1.10;99.90
15274;DHT22;7738;49.532;11.156;2023-03-01T08:06:16;-1.00;99.90
15274;DHT22;7738;49.532;11.156;2023-03-01T08:08:46;-0.90;99.90
15274;DHT22;7738;49.532;11.156;2023-03-01T08:11:16;-0.90;99.90
15274;DHT22;7738;49.532;11.156;2023-03-01T08:13:47;-0.70;99.90
15274;DHT22;7738;49.532;11.156;2023-03-01T08:16:20;-0.70;99.90
15274;DHT22;7738;49.532;11.156;2023-03-01T08:18:52;-0.60;99.90
15274;DHT22;7738;49.532;11.156;2023-03-01T08:21:23;-0.60;99.90
15274;DHT22;7738;49.532;11.156;2023-03-01T08:23:53;-0.40;99.90
15274;DHT22;7738;49.532;11.156;2023-03-01T08:26:23;-0.50;99.90
15274;DHT22;7738;49.532;11.156;2023-03-01T08:28:53;-0.30;99.90
15274;DHT22;7738;49.532;11.156;2023-03-01T08:31:25;-0.20;99.90
15274;DHT22;7738;49.532;11.156;2023-03-01T08:34:00;-0.20;99.90
15274;DHT22;7738;49.532;11.156;2023-03-01T08:36:32;-0.10;99.90
15274;DHT22;7738;49.532;11.156;2023-03-01T08:39:03;0.00;99.90
15274;DHT22;7738;49.532;11.156;2023-03-01T08:41:33;0.00;99.90
15274;DHT22;7738;49.532;11.156;2023-03-01T08:44:04;0.10;99.90
15274;DHT22;7738;49.532;11.156;2023-03-01T08:46:36;0.20;99.90
15274;DHT22;7738;49.532;11.156;2023-03-01T08:49:12;0.20;99.70
15274;DHT22;7738;49.532;11.156;2023-03-01T08:51:43;0.30;99.90
15274;DHT22;7738;49.532;11.156;2023-03-01T08:54:15;0.30;99.80
15274;DHT22;7738;49.532;11.156;2023-03-01T08:56:46;0.40;99.50
15274;DHT22;7738;49.532;11.156;2023-03-01T08:59:17;0.50;99.20
15274;DHT22;7738;49.532;11.156;2023-03-01T09:01:47;0.60;99.10
15274;DHT22;7738;49.532;11.156;2023-03-01T09:04:20;0.70;98.90
15274;DHT22;7738;49.532;11.156;2023-03-01T09:06:49;0.70;98.30
15274;DHT22;7738;49.532;11.156;2023-03-01T09:09:19;0.90;97.90
15274;DHT22;7738;49.532;11.156;2023-03-01T09:11:49;0.90;97.90
15274;DHT22;7738;49.532;11.156;2023-03-01T09:14:19;1.00;97.50
15274;DHT22;7738;49.532;11.156;2023-03-01T09:16:49;1.10;98.00
15274;DHT22;7738;49.532;11.156;2023-03-01T09:19:22;1.20;98.10
15274;DHT22;7738;49.532;11.156;2023-03-01T09:21:53;1.30;97.40
15274;DHT22;7738;49.532;11.156;2023-03-01T09:24:25;1.40;96.80
15274;DHT22;7738;49.532;11.156;2023-03-01T09:26:56;1.40;96.20
15274;DHT22;7738;49.532;11.156;2023-03-01T09:29:26;1.40;96.30
15274;DHT22;7738;49.532;11.156;2023-03-01T09:31:56;1.50;95.70
15274;DHT22;7738;49.532;11.156;2023-03-01T09:34:31;1.60;95.10
15274;DHT22;7738;49.532;11.156;2023-03-01T09:37:21;1.70;95.30
15274;DHT22;7738;49.532;11.156;2023-03-01T09:39:51;1.80;94.10
15274;DHT22;7738;49.532;11.156;2023-03-01T09:42:21;1.90;94.50
15274;DHT22;7738;49.532;11.156;2023-03-01T09:44:53;2.00;93.50
15274;DHT22;7738;49.532;11.156;2023-03-01T09:47:27;2.20;93.60
15274;DHT22;7738;49.532;11.156;2023-03-01T09:50:04;2.40;94.40
15274;DHT22;7738;49.532;11.156;2023-03-01T09:52:39;3.00;99.10
15274;DHT22;7738;49.532;11.156;2023-03-01T09:55:13;2.90;92.90
15274;DHT22;7738;49.532;11.156;2023-03-01T09:57:47;3.10;92.10
15274;DHT22;7738;49.532;11.156;2023-03-01T10:00:28;3.30;90.40
15274;DHT22;7738;49.532;11.156;2023-03-01T10:03:07;3.50;89.50
15274;DHT22;7738;49.532;11.156;2023-03-01T10:05:49;3.80;88.20
15274;DHT22;7738;49.532;11.156;2023-03-01T10:08:31;3.90;86.00
15274;DHT22;7738;49.532;11.156;2023-03-01T10:11:12;4.20;85.30
15274;DHT22;7738;49.532;11.156;2023-03-01T10:13:55;4.30;82.20
15274;DHT22;7738;49.532;11.156;2023-03-01T10:16:32;4.50;82.60
15274;DHT22;7738;49.532;11.156;2023-03-01T10:19:04;4.80;81.40
15274;DHT22;7738;49.532;11.156;2023-03-01T10:21:42;5.20;89.40
15274;DHT22;7738;49.532;11.156;2023-03-01T10:24:18;5.40;90.00
15274;DHT22;7738;49.532;11.156;2023-03-01T10:26:54;5.60;74.80
15274;DHT22;7738;49.532;11.156;2023-03-01T10:29:31;5.80;84.00
15274;DHT22;7738;49.532;11.156;2023-03-01T10:32:04;6.00;70.70
15274;DHT22;7738;49.532;11.156;2023-03-01T10:34:36;6.40;85.70
15274;DHT22;7738;49.532;11.156;2023-03-01T10:37:13;6.80;68.50
15274;DHT22;7738;49.532;11.156;2023-03-01T10:39:55;6.90;79.70
15274;DHT22;7738;49.532;11.156;2023-03-01T10:42:28;7.10;64.20
15274;DHT22;7738;49.532;11.156;2023-03-01T10:45:15;7.10;64.30
15274;DHT22;7738;49.532;11.156;2023-03-01T10:50:21;7.20;70.30
15274;DHT22;7738;49.532;11.156;2023-03-01T10:53:00;7.00;63.00
15274;DHT22;7738;49.532;11.156;2023-03-01T10:55:34;6.80;73.80
15274;DHT22;7738;49.532;11.156;2023-03-01T10:58:16;6.90;77.30
15274;DHT22;7738;49.532;11.156;2023-03-01T11:00:49;7.10;76.50
15274;DHT22;7738;49.532;11.156;2023-03-01T11:03:22;7.70;76.80
15274;DHT22;7738;49.532;11.156;2023-03-01T11:06:05;7.40;61.70
15274;DHT22;7738;49.532;11.156;2023-03-01T11:08:40;7.60;60.80
15274;DHT22;7738;49.532;11.156;2023-03-01T11:11:18;7.90;60.20
15274;DHT22;7738;49.532;11.156;2023-03-01T11:13:57;8.20;74.20
15274;DHT22;7738;49.532;11.156;2023-03-01T11:16:31;8.50;73.30
15274;DHT22;7738;49.532;11.156;2023-03-01T11:19:16;8.30;72.80
15274;DHT22;7738;49.532;11.156;2023-03-01T11:21:55;8.60;58.10
15274;DHT22;7738;49.532;11.156;2023-03-01T11:24:34;8.50;63.70
15274;DHT22;7738;49.532;11.156;2023-03-01T11:27:18;8.70;58.40
15274;DHT22;7738;49.532;11.156;2023-03-01T11:29:53;8.50;58.20
15274;DHT22;7738;49.532;11.156;2023-03-01T11:32:28;8.90;73.70
15274;DHT22;7738;49.532;11.156;2023-03-01T11:35:05;9.10;66.20
15274;DHT22;7738;49.532;11.156;2023-03-01T11:37:44;9.00;59.90
15274;DHT22;7738;49.532;11.156;2023-03-01T11:40:23;8.70;72.30
15274;DHT22;7738;49.532;11.156;2023-03-01T11:43:05;8.70;55.40
15274;DHT22;7738;49.532;11.156;2023-03-01T11:45:47;8.60;72.00
15274;DHT22;7738;49.532;11.156;2023-03-01T11:48:45;8.70;55.50
15274;DHT22;7738;49.532;11.156;2023-03-01T11:51:24;8.80;54.90
15274;DHT22;7738;49.532;11.156;2023-03-01T11:54:06;9.10;54.80
15274;DHT22;7738;49.532;11.156;2023-03-01T11:56:45;9.60;54.10
15274;DHT22;7738;49.532;11.156;2023-03-01T11:59:35;9.40;53.50
15274;DHT22;7738;49.532;11.156;2023-03-01T12:07:42;9.40;53.90
15274;DHT22;7738;49.532;11.156;2023-03-01T12:10:23;9.40;72.10
15274;DHT22;7738;49.532;11.156;2023-03-01T12:13:19;9.50;58.40
15274;DHT22;7738;49.532;11.156;2023-03-01T12:16:07;9.50;53.50
15274;DHT22;7738;49.532;11.156;2023-03-01T12:19:01;9.60;54.20
15274;DHT22;7738;49.532;11.156;2023-03-01T12:21:43;10.00;53.80
15274;DHT22;7738;49.532;11.156;2023-03-01T12:24:40;10.30;53.00
15274;DHT22;7738;49.532;11.156;2023-03-01T12:27:27;10.50;52.60
15274;DHT22;7738;49.532;11.156;2023-03-01T12:30:15;10.30;51.60
15274;DHT22;7738;49.532;11.156;2023-03-01T12:32:58;10.30;52.80
15274;DHT22;7738;49.532;11.156;2023-03-01T12:35:38;10.10;51.50
15274;DHT22;7738;49.532;11.156;2023-03-01T12:38:21;10.10;52.30
15274;DHT22;7738;49.532;11.156;2023-03-01T12:41:27;10.20;52.40
15274;DHT22;7738;49.532;11.156;2023-03-01T12:44:10;10.30;52.10
15274;DHT22;7738;49.532;11.156;2023-03-01T12:46:51;10.20;51.40
15274;DHT22;7738;49.532;11.156;2023-03-01T12:49:26;10.00;71.40
15274;DHT22;7738;49.532;11.156;2023-03-01T12:57:09;9.90;71.00
15274;DHT22;7738;49.532;11.156;2023-03-01T12:59:47;10.30;53.00
15274;DHT22;7738;49.532;11.156;2023-03-01T13:05:07;10.30;52.40
15274;DHT22;7738;49.532;11.156;2023-03-01T13:07:53;10.20;52.90
15274;DHT22;7738;49.532;11.156;2023-03-01T13:10:27;10.20;71.90
15274;DHT22;7738;49.532;11.156;2023-03-01T13:13:13;10.20;71.00
15274;DHT22;7738;49.532;11.156;2023-03-01T13:15:43;10.20;52.70
15274;DHT22;7738;49.532;11.156;2023-03-01T13:18:32;10.00;56.70
15274;DHT22;7738;49.532;11.156;2023-03-01T13:21:03;9.50;52.60
15274;DHT22;7738;49.532;11.156;2023-03-01T13:26:11;10.30;53.70
15274;DHT22;7738;49.532;11.156;2023-03-01T13:28:48;10.20;53.50
15274;DHT22;7738;49.532;11.156;2023-03-01T13:34:43;10.40;74.30
15274;DHT22;7738;49.532;11.156;2023-03-01T13:45:05;10.80;52.70
15274;DHT22;7738;49.532;11.156;2023-03-01T13:47:45;10.60;53.20
15274;DHT22;7738;49.532;11.156;2023-03-01T13:50:21;11.40;54.30
15274;DHT22;7738;49.532;11.156;2023-03-01T13:52:55;10.10;59.00
15274;DHT22;7738;49.532;11.156;2023-03-01T13:55:36;10.40;72.80
15274;DHT22;7738;49.532;11.156;2023-03-01T13:58:16;10.20;63.00
15274;DHT22;7738;49.532;11.156;2023-03-01T14:00:56;10.10;54.80
15274;DHT22;7738;49.532;11.156;2023-03-01T14:03:26;10.30;55.30
15274;DHT22;7738;49.532;11.156;2023-03-01T14:06:03;9.80;74.70
15274;DHT22;7738;49.532;11.156;2023-03-01T14:08:41;9.80;75.70
15274;DHT22;7738;49.532;11.156;2023-03-01T14:14:34;10.00;57.20
15274;DHT22;7738;49.532;11.156;2023-03-01T14:17:25;10.10;62.80
15274;DHT22;7738;49.532;11.156;2023-03-01T14:20:02;9.90;58.10
15274;DHT22;7738;49.532;11.156;2023-03-01T14:22:36;9.60;70.20
15274;DHT22;7738;49.532;11.156;2023-03-01T14:25:19;9.60;58.90
15274;DHT22;7738;49.532;11.156;2023-03-01T14:27:57;9.30;79.90
15274;DHT22;7738;49.532;11.156;2023-03-01T14:30:34;9.00;57.90
15274;DHT22;7738;49.532;11.156;2023-03-01T14:33:17;9.20;80.40
15274;DHT22;7738;49.532;11.156;2023-03-01T14:35:58;9.10;81.90
15274;DHT22;7738;49.532;11.156;2023-03-01T14:38:34;8.80;83.40
15274;DHT22;7738;49.532;11.156;2023-03-01T14:41:07;9.00;65.60
15274;DHT22;7738;49.532;11.156;2023-03-01T14:43:40;8.90;85.20
15274;DHT22;7738;49.532;11.156;2023-03-01T14:46:19;8.70;69.40
15274;DHT22;7738;49.532;11.156;2023-03-01T14:48:50;8.70;60.50
15274;DHT22;7738;49.532;11.156;2023-03-01T14:53:53;8.30;65.10
15274;DHT22;7738;49.532;11.156;2023-03-01T14:56:24;8.00;87.40
15274;DHT22;7738;49.532;11.156;2023-03-01T14:58:58;8.50;88.50
15274;DHT22;7738;49.532;11.156;2023-03-01T15:01:28;8.40;62.90
15274;DHT22;7738;49.532;11.156;2023-03-01T15:03:58;8.20;89.70
15274;DHT22;7738;49.532;11.156;2023-03-01T15:06:29;8.20;74.60
15274;DHT22;7738;49.532;11.156;2023-03-01T15:09:03;8.10;78.30
15274;DHT22;7738;49.532;11.156;2023-03-01T15:14:36;7.60;90.10
15274;DHT22;7738;49.532;11.156;2023-03-01T15:17:26;8.10;91.10
15274;DHT22;7738;49.532;11.156;2023-03-01T15:25:01;8.10;65.30
15274;DHT22;7738;49.532;11.156;2023-03-01T15:30:04;8.00;75.90
15274;DHT22;7738;49.532;11.156;2023-03-01T15:32:36;7.90;65.80
15274;DHT22;7738;49.532;11.156;2023-03-01T15:35:39;7.80;65.70
15274;DHT22;7738;49.532;11.156;2023-03-01T15:38:35;7.70;91.10
15274;DHT22;7738;49.532;11.156;2023-03-01T15:41:25;7.40;66.80
15274;DHT22;7738;49.532;11.156;2023-03-01T15:43:58;7.30;67.60
15274;DHT22;7738;49.532;11.156;2023-03-01T15:46:31;6.80;68.10
15274;DHT22;7738;49.532;11.156;2023-03-01T15:49:03;7.10;69.00
15274;DHT22;7738;49.532;11.156;2023-03-01T15:51:36;7.00;69.40
15274;DHT22;7738;49.532;11.156;2023-03-01T15:54:13;6.90;69.40
15274;DHT22;7738;49.532;11.156;2023-03-01T15:56:48;6.80;69.50
15274;DHT22;7738;49.532;11.156;2023-03-01T16:06:51;6.40;83.00
15274;DHT22;7738;49.532;11.156;2023-03-01T16:09:24;6.10;72.60
15274;DHT22;7738;49.532;11.156;2023-03-01T16:11:57;6.10;73.30
15274;DHT22;7738;49.532;11.156;2023-03-01T16:16:58;5.80;93.40
15274;DHT22;7738;49.532;11.156;2023-03-01T16:19:28;6.00;93.90
15274;DHT22;7738;49.532;11.156;2023-03-01T16:24:29;5.60;93.70
15274;DHT22;7738;49.532;11.156;2023-03-01T16:27:01;5.90;87.80
15274;DHT22;7738;49.532;11.156;2023-03-01T16:42:05;5.30;79.10
15274;DHT22;7738;49.532;11.156;2023-03-01T16:52:07;4.90;95.60
15274;DHT22;7738;49.532;11.156;2023-03-01T16:57:10;4.90;83.10
15274;DHT22;7738;49.532;11.156;2023-03-01T17:02:12;4.80;84.50
15274;DHT22;7738;49.532;11.156;2023-03-01T17:04:52;4.70;85.60
15274;DHT22;7738;49.532;11.156;2023-03-01T17:12:25;4.40;87.20
15274;DHT22;7738;49.532;11.156;2023-03-01T17:14:55;4.40;97.30
15274;DHT22;7738;49.532;11.156;2023-03-01T17:19:55;4.30;97.70
15274;DHT22;7738;49.532;11.156;2023-03-01T17:27:28;4.10;90.80
15274;DHT22;7738;49.532;11.156;2023-03-01T17:30:02;3.80;98.70
15274;DHT22;7738;49.532;11.156;2023-03-01T17:32:31;4.10;99.00
15274;DHT22;7738;49.532;11.156;2023-03-01T17:35:02;4.10;99.10
15274;DHT22;7738;49.532;11.156;2023-03-01T17:39:55;5.80;93.70
15274;DHT22;7738;49.532;11.156;2023-03-01T17:44:55;3.70;98.90
15274;DHT22;7738;49.532;11.156;2023-03-01T17:47:26;3.40;98.30
15274;DHT22;7738;49.532;11.156;2023-03-01T17:54:59;3.60;94.20
15274;DHT22;7738;49.532;11.156;2023-03-01T17:57:29;3.50;99.10
15274;DHT22;7738;49.532;11.156;2023-03-01T17:59:59;3.30;99.00
15274;DHT22;7738;49.532;11.156;2023-03-01T18:02:37;3.20;94.90
15274;DHT22;7738;49.532;11.156;2023-03-01T18:05:08;3.50;99.80
15274;DHT22;7738;49.532;11.156;2023-03-01T18:07:38;3.30;99.90
15274;DHT22;7738;49.532;11.156;2023-03-01T18:10:11;3.30;99.90
15274;DHT22;7738;49.532;11.156;2023-03-01T18:12:41;3.50;97.30
15274;DHT22;7738;49.532;11.156;2023-03-01T18:17:41;2.80;99.90
15274;DHT22;7738;49.532;11.156;2023-03-01T18:22:44;3.30;99.90
15274;DHT22;7738;49.532;11.156;2023-03-01T18:25:18;3.00;95.80
15274;DHT22;7738;49.532;11.156;2023-03-01T18:30:18;2.80;96.20
15274;DHT22;7738;49.532;11.156;2023-03-01T18:35:22;2.70;99.90
15274;DHT22;7738;49.532;11.156;2023-03-01T18:37:52;2.70;99.90
15274;DHT22;7738;49.532;11.156;2023-03-01T18:40:25;2.60;99.90
15274;DHT22;7738;49.532;11.156;2023-03-01T18:50:26;2.90;99.90
15274;DHT22;7738;49.532;11.156;2023-03-01T18:52:57;2.70;97.50
15274;DHT22;7738;49.532;11.156;2023-03-01T18:55:29;2.80;99.90
15274;DHT22;7738;49.532;11.156;2023-03-01T19:00:30;2.60;99.90
15274;DHT22;7738;49.532;11.156;2023-03-01T19:03:00;2.60;99.90
15274;DHT22;7738;49.532;11.156;2023-03-01T19:05:31;2.70;99.90
15274;DHT22;7738;49.532;11.156;2023-03-01T19:10:34;2.60;97.80
15274;DHT22;7738;49.532;11.156;2023-03-01T19:13:04;2.60;99.90
15274;DHT22;7738;49.532;11.156;2023-03-01T19:15:34;2.60;99.90
15274;DHT22;7738;49.532;11.156;2023-03-01T19:18:05;2.50;98.00
15274;DHT22;7738;49.532;11.156;2023-03-01T19:23:06;2.40;99.90
15274;DHT22;7738;49.532;11.156;2023-03-01T19:25:42;2.40;98.70
15274;DHT22;7738;49.532;11.156;2023-03-01T19:30:42;2.30;99.90
15274;DHT22;7738;49.532;11.156;2023-03-01T19:33:13;2.10;99.40
15274;DHT22;7738;49.532;11.156;2023-03-01T19:40:47;2.20;99.90